PAFS

Details ICAO PAFS (NIB)
Name NIKOLAI
Region USA (Alaska)
Timezone America/Anchorage (UTC-9.0)
Plans Departing 2
Arriving 1
Stats Elevation 441 ft / 134 m (AMSL)
Location 63.018560° -154.358434°
Runways 1
Magnetic Variation 14.848° E
Sunrise 2017-12-11 19:45:09 UTC / 2017-12-11 10:45:09 Local
Sunset 2017-12-12 00:39:32 UTC / 2017-12-11 15:39:32 Local
Advertisement - Login to hide

Runways

ID Width Length Bearing (true) Bearing (mag) Surface Threshold Offset Overrun Length
04 75 ft / 23 m 3,990 ft / 1,216 m 63.29° 48.44° Gravel 0 ft / 0 m 0 ft / 0 m
22 75 ft / 23 m 3,990 ft / 1,216 m 243.31° 228.46° Gravel 0 ft / 0 m 0 ft / 0 m

Map

Weather


0- 5 10 15 20 25 30 35+ Temperature / ° C

Clouds and Precipitation
Forecast for 2017-12-12 06:00 UTC. Updated 2 hours ago

Ground ~20,000 ft ~40,000 ft Winds

METAR

PAFS 120501Z AUTO 00000KT 8SM CLR M06/M07 A2953

TAF

Not found

Frequencies

Recorded 118.32 MHz ASOS
Approach 128.10 MHz ANCHORAGE CNTR
Unicom 122.80 MHz CTAF
Warning: Do not use this data for real-world aviation or navigation. No guarantee of current accuracy is given.